Terminal Aerodrome Forecast
Issued by NWS Brownsville, TX

Home | Current Version | Previous Version | Text Only | Print | Product List | Glossary On
Versions: 1 2 3 4 5 6 7 8 9 10 11 12 13 14 15 16 17
005
FTUS44 KBRO 240525
TAFMFE
TAF
KMFE 240525Z 2406/2506 14012G17KT P6SM SCT025
      TEMPO 2406/2408 BKN025
     FM241600 18020G25KT P6SM OVC050
     FM242200 19015G20KT P6SM FEW050
     FM250100 14012KT P6SM SCT250=

USA.gov is the U.S. government's official web portal to all federal, state and local government web resources and services.